Forestdale, MA

4:33 AM EST on February 10, 2016 (GMT -0500)
Cape Cod Coast Guard Air Station

Weather History for KFMH - March, 2014

Change the Weather History Date:

Sunday, March 16, 2014

  Actual Average Record
Temperature  
Mean Temperature 32 °F -  
Max Temperature 37 °F 40 °F 57 °F (2003)
Min Temperature 28 °F 26 °F 21 °F (1997)
Degree Days  
Heating Degree Days 32    
Moisture  
Dew Point 9 °F    
Average Humidity 37    
Maximum Humidity 81    
Minimum Humidity 19    
Precipitation  
Precipitation 0.00 in - - ()
Sea Level Pressure  
Sea Level Pressure 30.06 in    
Wind  
Wind Speed 12 mph (WNW)    
Max Wind Speed 22 mph    
Max Gust Speed 30 mph    
Visibility 10 miles    
Events      
Averages and records for this station are not official NWS values.
T = Trace of Precipitation, MM = Missing Value Source: NWS Daily Summary

Daily Weather History Graph

Daily Weather History Graph

Search for Another Location

Airport or City:

Trip Planner

Search our weather history database for the weather conditions in past years. The results will help you decide how hot, cold, wet, or windy it might be!

Date:

Astronomy

Mar. 16, 2014 Rise Set
Actual Time 6:52 AM EDT 6:49 PM EDT
Civil Twilight 6:24 AM EDT 7:17 PM EDT
Nautical Twilight 5:52 AM EDT 7:49 PM EDT
Astronomical Twilight 5:19 AM EDT 8:22 PM EDT
Moon 7:04 PM EDT (3/16) 6:33 AM EDT (3/16)
Length of Visible Light 12h 52m
Length of Day
11h 57m
Full, 100% of the Moon is Illuminated
Mar 16
Full
Mar 16
Full
Mar 23
Last Quarter
Mar 30
New
Apr 7
First Quarter

Hourly Weather History & Observations

Time (EDT) Temp. Windchill Dew Point Humidity Pressure Visibility Wind Dir Wind Speed Gust Speed Precip Events Conditions
12:15 AM 32.0 °F 27.5 °F 26.6 °F 80% 29.89 in 10.0 mi West 4.6 mph - N/A   Partly Cloudy
12:35 AM 33.8 °F 29.6 °F 28.4 °F 81% 29.90 in 10.0 mi West 4.6 mph 11.5 mph N/A   Partly Cloudy
12:55 AM 33.8 °F 28.6 °F 26.6 °F 75% 29.91 in 10.0 mi West 5.8 mph - N/A   Partly Cloudy
1:15 AM 37.4 °F 28.9 °F 26.6 °F 65% 29.90 in 10.0 mi West 13.8 mph - N/A   Clear
1:35 AM 37.4 °F 29.3 °F 24.8 °F 60% 29.91 in 10.0 mi West 12.7 mph - N/A   Clear
1:55 AM 37.4 °F 28.9 °F 23.0 °F 56% 29.91 in 10.0 mi West 13.8 mph - N/A   Clear
2:15 AM 37.4 °F 28.2 °F 19.4 °F 48% 29.92 in 10.0 mi WNW 16.1 mph 23.0 mph N/A   Clear
2:35 AM 35.6 °F 25.2 °F 17.6 °F 48% 29.91 in 10.0 mi WNW 18.4 mph - N/A   Clear
2:55 AM 35.6 °F 25.5 °F 17.6 °F 48% 29.92 in 10.0 mi WNW 17.3 mph - N/A   Clear
3:15 AM 35.6 °F 24.8 °F 17.6 °F 48% 29.92 in 10.0 mi WNW 19.6 mph 28.8 mph N/A   Clear
3:35 AM 35.6 °F 24.8 °F 15.8 °F 44% 29.93 in 10.0 mi WNW 19.6 mph 29.9 mph N/A   Clear
3:55 AM 33.8 °F 23.9 °F 15.8 °F 48% 29.94 in 10.0 mi WNW 15.0 mph 21.9 mph N/A   Clear
4:15 AM 33.8 °F 21.9 °F 14.0 °F 44% 29.94 in 10.0 mi West 21.9 mph - N/A   Clear
4:35 AM 32.0 °F 20.5 °F 12.2 °F 44% 29.95 in 10.0 mi WNW 18.4 mph 25.3 mph N/A   Clear
4:55 AM 32.0 °F 20.8 °F 12.2 °F 44% 29.96 in 10.0 mi WNW 17.3 mph 25.3 mph N/A   Clear
5:15 AM 32.0 °F 20.8 °F 10.4 °F 41% 29.96 in 10.0 mi WNW 17.3 mph 24.2 mph N/A   Clear
5:35 AM 32.0 °F 20.5 °F 10.4 °F 41% 29.97 in 10.0 mi WNW 18.4 mph 26.5 mph N/A   Clear
5:55 AM 30.2 °F 19.3 °F 12.2 °F 47% 29.98 in 10.0 mi WNW 15.0 mph 26.5 mph N/A   Clear
6:15 AM 30.2 °F 18.5 °F 12.2 °F 47% 29.99 in 10.0 mi WNW 17.3 mph 26.5 mph N/A   Clear
6:35 AM 30.2 °F 21.3 °F 12.2 °F 47% 30.00 in 10.0 mi WNW 10.4 mph 18.4 mph N/A   Clear
6:55 AM 28.4 °F 19.1 °F 12.2 °F 51% 30.00 in 10.0 mi WNW 10.4 mph 17.3 mph N/A   Clear
7:15 AM 28.4 °F 18.0 °F 14.0 °F 55% 30.01 in 10.0 mi WNW 12.7 mph - N/A   Clear
7:35 AM 30.2 °F 18.9 °F 12.2 °F 47% 30.02 in 10.0 mi WNW 16.1 mph 24.2 mph N/A   Clear
7:55 AM 30.2 °F 18.9 °F 12.2 °F 47% 30.04 in 10.0 mi WNW 16.1 mph 21.9 mph N/A   Clear
8:15 AM 30.2 °F 18.9 °F 12.2 °F 47% 30.05 in 10.0 mi WNW 16.1 mph 23.0 mph N/A   Clear
8:35 AM 30.2 °F 18.5 °F 10.4 °F 44% 30.06 in 10.0 mi WNW 17.3 mph - N/A   Clear
8:55 AM 32.0 °F 22.1 °F 10.4 °F 41% 30.07 in 10.0 mi WNW 13.8 mph - N/A   Clear
9:15 AM 32.0 °F 22.1 °F 10.4 °F 41% 30.07 in 10.0 mi NW 13.8 mph 23.0 mph N/A   Clear
9:35 AM 32.0 °F 20.8 °F 10.4 °F 41% 30.08 in 10.0 mi WNW 17.3 mph - N/A   Clear
9:55 AM 32.0 °F 23.0 °F 10.4 °F 41% 30.08 in 10.0 mi WNW 11.5 mph 20.7 mph N/A   Clear
10:15 AM 33.8 °F 23.9 °F 10.4 °F 38% 30.09 in 10.0 mi NW 15.0 mph 20.7 mph N/A   Clear
10:35 AM 33.8 °F 24.3 °F 10.4 °F 38% 30.09 in 10.0 mi WNW 13.8 mph - N/A   Clear
10:55 AM 33.8 °F 25.8 °F 10.4 °F 38% 30.09 in 10.0 mi NW 10.4 mph 17.3 mph N/A   Clear
11:15 AM 33.8 °F 23.9 °F 10.4 °F 38% 30.09 in 10.0 mi WNW 15.0 mph - N/A   Clear
11:35 AM 35.6 °F 27.5 °F 12.2 °F 38% 30.09 in 10.0 mi WNW 11.5 mph 18.4 mph N/A   Clear
11:55 AM 35.6 °F 27.5 °F 10.4 °F 35% 30.09 in 10.0 mi WNW 11.5 mph 20.7 mph N/A   Clear
12:15 PM 35.6 °F 26.6 °F 10.4 °F 35% 30.10 in 10.0 mi West 13.8 mph 21.9 mph N/A   Clear
12:35 PM 35.6 °F 27.1 °F 10.4 °F 35% 30.09 in 10.0 mi West 12.7 mph 20.7 mph N/A   Clear
12:55 PM 35.6 °F 29.9 °F 8.6 °F 33% 30.09 in 10.0 mi NW 6.9 mph 18.4 mph N/A   Clear
1:15 PM 35.6 °F 27.1 °F 6.8 °F 30% 30.08 in 10.0 mi West 12.7 mph 19.6 mph N/A   Clear
1:35 PM 37.4 °F 28.2 °F 6.8 °F 28% 30.09 in 10.0 mi WNW 16.1 mph - N/A   Clear
1:55 PM 35.6 °F 26.2 °F 6.8 °F 30% 30.09 in 10.0 mi WNW 15.0 mph 20.7 mph N/A   Clear
2:15 PM 37.4 °F 29.3 °F 6.8 °F 28% 30.08 in 10.0 mi WNW 12.7 mph 18.4 mph N/A   Clear
2:35 PM 37.4 °F 32.1 °F 6.8 °F 28% 30.08 in 10.0 mi WSW 6.9 mph 17.3 mph N/A   Clear
2:55 PM 37.4 °F 28.2 °F 5.0 °F 26% 30.08 in 10.0 mi West 16.1 mph - N/A   Clear
3:15 PM 37.4 °F 28.2 °F 1.4 °F 22% 30.09 in 10.0 mi WNW 16.1 mph 24.2 mph N/A   Clear
3:35 PM 35.6 °F 26.2 °F 1.4 °F 24% 30.08 in 10.0 mi NNW 15.0 mph 21.9 mph N/A   Clear
3:55 PM 35.6 °F 26.2 °F 1.4 °F 24% 30.08 in 10.0 mi NW 15.0 mph 21.9 mph N/A   Clear
4:15 PM 35.6 °F 29.2 °F 3.2 °F 26% 30.10 in 10.0 mi WNW 8.1 mph 17.3 mph N/A   Clear
4:35 PM 35.6 °F 28.0 °F 3.2 °F 26% 30.09 in 10.0 mi WNW 10.4 mph 16.1 mph N/A   Clear
4:55 PM 35.6 °F 27.5 °F 1.4 °F 24% 30.10 in 10.0 mi NW 11.5 mph 18.4 mph N/A   Clear
5:15 PM 33.8 °F 24.8 °F 1.4 °F 25% 30.09 in 10.0 mi NW 12.7 mph - N/A   Clear
5:35 PM 33.8 °F 26.4 °F 1.4 °F 25% 30.09 in 10.0 mi WNW 9.2 mph - N/A   Clear
5:55 PM 33.8 °F 25.3 °F -0.4 °F 23% 30.10 in 10.0 mi WNW 11.5 mph - N/A   Clear
6:15 PM 32.0 °F 24.8 °F -0.4 °F 25% 30.12 in 10.0 mi WNW 8.1 mph 16.1 mph N/A   Clear
6:35 PM 32.0 °F 24.8 °F -0.4 °F 25% 30.11 in 10.0 mi WNW 8.1 mph 15.0 mph N/A   Clear
6:55 PM 32.0 °F 24.8 °F -0.4 °F 25% 30.12 in 10.0 mi NW 8.1 mph - N/A   Clear
7:15 PM 32.0 °F 26.4 °F -0.4 °F 25% 30.12 in 10.0 mi NW 5.8 mph - N/A   Mostly Cloudy
7:35 PM 32.0 °F 26.4 °F 1.4 °F 27% 30.13 in 10.0 mi NNW 5.8 mph - N/A   Overcast
7:55 PM 30.2 °F 25.4 °F 1.4 °F 29% 30.15 in 10.0 mi NW 4.6 mph - N/A   Overcast
8:15 PM 30.2 °F 25.4 °F 1.4 °F 29% 30.17 in 10.0 mi NW 4.6 mph - N/A   Overcast
8:35 PM 30.2 °F 24.3 °F 1.4 °F 29% 30.17 in 10.0 mi NW 5.8 mph - N/A   Overcast
8:55 PM 30.2 °F 24.3 °F 1.4 °F 29% 30.17 in 10.0 mi NW 5.8 mph - N/A   Overcast
9:15 PM 30.2 °F 24.3 °F 1.4 °F 29% 30.17 in 10.0 mi NW 5.8 mph - N/A   Overcast
9:35 PM 30.2 °F 22.6 °F 1.4 °F 29% 30.17 in 10.0 mi NNW 8.1 mph - N/A   Overcast
9:55 PM 30.2 °F 23.4 °F 1.4 °F 29% 30.16 in 10.0 mi NNW 6.9 mph - N/A   Overcast
10:15 PM 30.2 °F 22.6 °F 1.4 °F 29% 30.16 in 10.0 mi NW 8.1 mph - N/A   Overcast
10:35 PM 30.2 °F 24.3 °F 1.4 °F 29% 30.16 in 10.0 mi NNW 5.8 mph - N/A   Overcast
10:55 PM 30.2 °F 23.4 °F 1.4 °F 29% 30.16 in 10.0 mi NNW 6.9 mph - N/A   Overcast
11:15 PM 30.2 °F 25.4 °F 1.4 °F 29% 30.15 in 10.0 mi North 4.6 mph - N/A   Overcast
11:35 PM 28.4 °F 22.2 °F 1.4 °F 31% 30.15 in 10.0 mi NNW 5.8 mph - N/A   Unknown
11:55 PM 28.4 °F 22.2 °F 1.4 °F 31% 30.15 in 10.0 mi North 5.8 mph - N/A   Overcast